^^
Saratoga-Weather Station Historical Data
Daily Summary for August 06, 2022 Units:  Metric    English   Both
Daily Weekly Monthly Yearly Custom
  High: Low: Average:
Temperature: 18.7 °C 16.7 °C 17.8 °C
Dew Point: 13.1 °C 11 °C 12 °C
Humidity: 70% 68% 69%
Wind Speed: 9.7km/h 0km/h 3.4km/h
Wind Gust: 12.9km/h - -
Wind- - West
Pressure: 1022.7 hPa 1021.3 hPa -
Precipitation: 0.0 mm    
Historical Graphs
 
 
Tabular Data for August 06, 2022
Time Temperature Dew Point Pressure Wind Wind Speed Wind Gust Humidity Rainfall Rate (Hourly) solar
00:04 18.7 °C 13.1 °C 1021.3 hPa WSW 4.7 km/h 6.4 km/h 70% 0.0 mm 0 W/m2
00:09 18.7 °C 13.1 °C 1021.3 hPa NNW 4.7 km/h 6.4 km/h 70% 0.0 mm 0 W/m2
00:14 18.7 °C 13.1 °C 1021.3 hPa West 3.2 km/h 9.7 km/h 70% 0.0 mm 0 W/m2
00:19 18.6 °C 13 °C 1021.3 hPa West 4.7 km/h 4.8 km/h 70% 0.0 mm 0 W/m2
00:24 18.6 °C 13 °C 1021.7 hPa WNW 4.7 km/h 8 km/h 70% 0.0 mm 0 W/m2
00:29 18.5 °C 12.9 °C 1021.7 hPa WSW 4.7 km/h 6.4 km/h 70% 0.0 mm 0 W/m2
00:34 18.4 °C 12.8 °C 1021.7 hPa NNW 1.4 km/h 11.3 km/h 70% 0.0 mm 0 W/m2
00:39 18.4 °C 12.6 °C 1021.7 hPa WSW 4.7 km/h 6.4 km/h 69% 0.0 mm 0 W/m2
00:44 18.3 °C 12.5 °C 1021.7 hPa WNW 3.2 km/h 11.3 km/h 69% 0.0 mm 0 W/m2
00:49 18.3 °C 12.5 °C 1021.7 hPa NW 1.4 km/h 6.4 km/h 69% 0.0 mm 0 W/m2
00:54 18.2 °C 12.4 °C 1022.0 hPa WSW 4.7 km/h 4.8 km/h 69% 0.0 mm 0 W/m2
00:59 18.2 °C 12.6 °C 1022.0 hPa NW 1.4 km/h 6.4 km/h 70% 0.0 mm 0 W/m2
01:04 18.1 °C 12.5 °C 1022.0 hPa West 3.2 km/h 3.2 km/h 70% 0.0 mm 0 W/m2
01:09 18 °C 12.4 °C 1022.0 hPa Calm   4.8 km/h 70% 0.0 mm 0 W/m2
01:14 17.9 °C 12.1 °C 1022.0 hPa NW 3.2 km/h 4.8 km/h 69% 0.0 mm 0 W/m2
01:19 17.8 °C 12 °C 1022.0 hPa North 4.7 km/h 4.8 km/h 69% 0.0 mm 0 W/m2
01:24 17.8 °C 12 °C 1022.0 hPa NE 1.4 km/h 9.7 km/h 69% 0.0 mm 0 W/m2
01:29 17.8 °C 12 °C 1022.0 hPa NE 3.2 km/h 3.2 km/h 69% 0.0 mm 0 W/m2
01:35 17.7 °C 11.9 °C 1022.4 hPa WSW 3.2 km/h 12.9 km/h 69% 0.0 mm 0 W/m2
01:40 17.7 °C 11.9 °C 1022.0 hPa NNW 1.4 km/h 9.7 km/h 69% 0.0 mm 0 W/m2
01:45 17.6 °C 11.6 °C 1022.4 hPa NNW 3.2 km/h 12.9 km/h 68% 0.0 mm 0 W/m2
01:50 17.6 °C 11.8 °C 1022.4 hPa NW 1.4 km/h 6.4 km/h 69% 0.0 mm 0 W/m2
01:55 17.4 °C 11.4 °C 1022.4 hPa NW 4.7 km/h 6.4 km/h 68% 0.0 mm 0 W/m2
02:00 17.4 °C 11.4 °C 1022.4 hPa WNW 3.2 km/h 12.9 km/h 68% 0.0 mm 0 W/m2
02:05 17.3 °C 11.3 °C 1022.4 hPa North 1.4 km/h 9.7 km/h 68% 0.0 mm 0 W/m2
02:10 17.2 °C 11.2 °C 1022.4 hPa West 4.7 km/h 11.3 km/h 68% 0.0 mm 0 W/m2
02:15 17.2 °C 11.5 °C 1022.4 hPa NNW 3.2 km/h 3.2 km/h 69% 0.0 mm 0 W/m2
02:20 17.1 °C 11.4 °C 1022.4 hPa SW 1.4 km/h 11.3 km/h 69% 0.0 mm 0 W/m2
02:25 16.9 °C 11.2 °C 1022.4 hPa West 4.7 km/h 6.4 km/h 69% 0.0 mm 0 W/m2
02:30 16.8 °C 11.1 °C 1022.4 hPa West 4.7 km/h 8 km/h 69% 0.0 mm 0 W/m2
02:35 16.8 °C 11.1 °C 1022.4 hPa West 9.7 km/h 11.3 km/h 69% 0.0 mm 0 W/m2
02:40 16.7 °C 11 °C 1022.4 hPa Calm   6.4 km/h 69% 0.0 mm 0 W/m2
02:45 16.7 °C 11.2 °C 1022.7 hPa WNW 4.7 km/h 11.3 km/h 70% 0.0 mm 0 W/m2
Juneau County Weather
Compliments of Weather Underground - 2 mb